createdAt,value
2023-05-16T00:01:59.043Z,10.30
2023-05-16T00:04:27.423Z,10.20
2023-05-16T00:06:55.823Z,10.20
2023-05-16T00:09:23.827Z,10.20
2023-05-16T00:11:53.327Z,10.10
2023-05-16T00:14:22.342Z,10.10
2023-05-16T00:16:51.002Z,10.00
2023-05-16T00:19:19.112Z,10.00
2023-05-16T00:21:47.193Z,10.00
2023-05-16T00:24:15.577Z,10.00
2023-05-16T00:26:43.649Z,10.00
2023-05-16T00:29:12.960Z,10.00
2023-05-16T00:31:40.961Z,10.00
2023-05-16T00:34:08.937Z,10.00
2023-05-16T00:36:37.627Z,9.90
2023-05-16T00:39:05.765Z,9.90
2023-05-16T00:41:37.340Z,9.90
2023-05-16T00:44:05.457Z,9.90
2023-05-16T00:46:34.859Z,9.90
2023-05-16T00:49:03.097Z,9.90
2023-05-16T00:51:31.595Z,9.90
2023-05-16T00:54:00.323Z,9.90
2023-05-16T00:56:28.305Z,10.00
2023-05-16T00:58:56.613Z,10.00
2023-05-16T01:01:27.459Z,9.90
2023-05-16T01:03:57.792Z,9.90
2023-05-16T01:06:26.013Z,9.90
2023-05-16T01:08:55.179Z,9.90
2023-05-16T01:11:28.244Z,9.90
2023-05-16T01:14:01.895Z,9.90
2023-05-16T01:16:37.794Z,9.80
2023-05-16T01:19:20.657Z,9.80
2023-05-16T01:21:58.702Z,9.80
2023-05-16T01:24:35.266Z,9.80
2023-05-16T01:27:06.137Z,9.70
2023-05-16T01:29:34.347Z,9.70
2023-05-16T01:32:02.667Z,9.70
2023-05-16T01:34:30.749Z,9.60
2023-05-16T01:37:07.150Z,9.60
2023-05-16T01:39:38.767Z,9.70
2023-05-16T01:42:12.263Z,9.70
2023-05-16T01:44:44.994Z,9.70
2023-05-16T01:47:17.380Z,9.70
2023-05-16T01:49:52.304Z,9.60
2023-05-16T01:52:25.488Z,9.70
2023-05-16T01:54:56.216Z,9.60
2023-05-16T01:57:28.126Z,9.70
2023-05-16T01:59:56.143Z,9.70
2023-05-16T02:02:24.159Z,9.70
2023-05-16T02:04:52.201Z,9.70
2023-05-16T02:07:20.663Z,9.80
2023-05-16T02:09:48.752Z,9.80
2023-05-16T02:12:17.403Z,9.80
2023-05-16T02:14:46.784Z,9.80
2023-05-16T02:17:14.744Z,9.70
2023-05-16T02:19:42.842Z,9.70
2023-05-16T02:22:10.819Z,9.70
2023-05-16T02:24:38.766Z,9.70
2023-05-16T02:27:07.174Z,9.70
2023-05-16T02:29:35.143Z,9.70
2023-05-16T02:32:04.736Z,9.70
2023-05-16T02:34:32.709Z,9.70
2023-05-16T02:37:00.716Z,9.70
2023-05-16T02:39:28.859Z,9.60
2023-05-16T02:41:56.854Z,9.60
2023-05-16T02:44:24.848Z,9.60
2023-05-16T02:46:52.946Z,9.60
2023-05-16T02:49:22.343Z,9.60
2023-05-16T02:51:50.385Z,9.60
2023-05-16T02:54:18.355Z,9.60
2023-05-16T02:56:46.371Z,9.50
2023-05-16T02:59:14.521Z,9.50
2023-05-16T03:01:42.523Z,9.50
2023-05-16T03:04:10.549Z,9.50
2023-05-16T03:06:41.429Z,9.50
2023-05-16T03:09:09.327Z,9.50
2023-05-16T03:11:37.923Z,9.40
2023-05-16T03:14:05.966Z,9.40
2023-05-16T03:16:34.182Z,9.50
2023-05-16T03:19:02.319Z,9.50
2023-05-16T03:21:30.302Z,9.50
2023-05-16T03:23:59.791Z,9.50
2023-05-16T03:26:27.780Z,9.50
2023-05-16T03:28:55.736Z,9.50
2023-05-16T03:31:23.799Z,9.50
2023-05-16T03:33:51.820Z,9.40
2023-05-16T03:36:22.295Z,9.50
2023-05-16T03:38:50.401Z,9.50
2023-05-16T03:41:19.668Z,9.50
2023-05-16T03:43:47.581Z,9.50
2023-05-16T03:46:15.873Z,9.50
2023-05-16T03:48:43.882Z,9.50
2023-05-16T03:51:11.854Z,9.60
2023-05-16T03:53:39.810Z,9.60
2023-05-16T03:56:07.998Z,9.60
2023-05-16T03:58:37.294Z,9.60
2023-05-16T04:01:05.573Z,9.50
2023-05-16T04:03:33.700Z,9.50
2023-05-16T04:06:01.840Z,9.50
2023-05-16T04:08:29.858Z,9.60
2023-05-16T04:10:57.864Z,9.60
2023-05-16T04:13:25.997Z,9.60
2023-05-16T04:15:55.420Z,9.60
2023-05-16T04:18:23.386Z,9.60
2023-05-16T04:20:51.427Z,9.60
2023-05-16T04:23:19.435Z,9.60
2023-05-16T04:25:47.331Z,9.60
2023-05-16T04:28:15.630Z,9.60
2023-05-16T04:30:43.650Z,9.60
2023-05-16T04:33:12.948Z,9.60
2023-05-16T04:35:41.163Z,9.70
2023-05-16T04:38:09.270Z,9.80
2023-05-16T04:40:37.623Z,9.80
2023-05-16T04:43:05.635Z,9.90
2023-05-16T04:45:34.289Z,9.90
2023-05-16T04:48:05.546Z,9.90
2023-05-16T04:50:35.073Z,9.90
2023-05-16T04:53:03.451Z,9.90
2023-05-16T04:55:32.992Z,10.00
2023-05-16T04:58:01.026Z,10.00
2023-05-16T05:00:29.631Z,10.00
2023-05-16T05:02:57.783Z,10.00
2023-05-16T05:05:32.021Z,10.00
2023-05-16T05:08:01.756Z,10.10
2023-05-16T05:10:31.202Z,10.10
2023-05-16T05:12:59.253Z,10.10
2023-05-16T05:15:27.568Z,10.20
2023-05-16T05:17:55.958Z,10.20
2023-05-16T05:20:24.122Z,10.20
2023-05-16T05:22:52.164Z,10.20
2023-05-16T05:25:21.444Z,10.30
2023-05-16T05:27:49.654Z,10.40
2023-05-16T05:30:17.719Z,10.50
2023-05-16T05:32:45.902Z,10.50
2023-05-16T05:35:13.879Z,10.70
2023-05-16T05:37:41.867Z,10.70
2023-05-16T05:40:10.591Z,10.80
2023-05-16T05:42:40.029Z,10.80
2023-05-16T05:45:08.751Z,10.80
2023-05-16T05:47:36.836Z,10.80
2023-05-16T05:50:05.702Z,10.80
2023-05-16T05:52:33.759Z,10.80
2023-05-16T05:55:01.748Z,10.80
2023-05-16T05:57:29.888Z,10.90
2023-05-16T05:59:59.286Z,10.90
2023-05-16T06:02:29.207Z,11.00
2023-05-16T06:04:57.615Z,11.00
2023-05-16T06:07:25.972Z,11.00
2023-05-16T06:09:54.007Z,11.00
2023-05-16T06:12:21.939Z,11.00
2023-05-16T06:14:49.958Z,10.90
2023-05-16T06:17:19.389Z,10.90
2023-05-16T06:19:47.413Z,10.90
2023-05-16T06:22:15.522Z,11.00
2023-05-16T06:24:45.705Z,11.00
2023-05-16T06:27:15.447Z,11.10
2023-05-16T06:29:43.408Z,11.10
2023-05-16T06:32:15.246Z,11.10
2023-05-16T06:34:44.875Z,11.00
2023-05-16T06:37:12.907Z,11.00
2023-05-16T06:39:46.419Z,11.10
2023-05-16T06:42:14.958Z,11.20
2023-05-16T06:44:42.951Z,11.30
2023-05-16T06:47:10.976Z,11.50
2023-05-16T06:49:38.915Z,11.50
2023-05-16T06:52:08.999Z,11.60
2023-05-16T06:54:40.481Z,11.60
2023-05-16T06:57:11.121Z,11.70
2023-05-16T06:59:41.019Z,11.80
2023-05-16T07:02:09.096Z,11.80
2023-05-16T07:04:38.139Z,11.80
2023-05-16T07:07:09.071Z,11.70
2023-05-16T07:09:39.476Z,11.50
2023-05-16T07:12:08.680Z,11.40
2023-05-16T07:14:36.708Z,11.20
2023-05-16T07:17:05.067Z,10.90
2023-05-16T07:19:33.286Z,10.90
2023-05-16T07:22:01.265Z,10.90
2023-05-16T07:24:32.383Z,10.90
2023-05-16T07:27:00.467Z,11.00
2023-05-16T07:29:28.454Z,11.20
2023-05-16T07:31:59.947Z,11.20
2023-05-16T07:34:28.194Z,11.30
2023-05-16T07:36:56.637Z,11.50
2023-05-16T07:39:24.604Z,11.60
2023-05-16T07:41:53.906Z,11.60
2023-05-16T07:44:25.167Z,11.70
2023-05-16T07:46:53.175Z,11.60
2023-05-16T07:49:21.304Z,11.60
2023-05-16T07:51:49.420Z,11.70
2023-05-16T07:54:19.755Z,11.80
2023-05-16T07:56:47.753Z,12.00
2023-05-16T07:59:23.518Z,12.10
2023-05-16T08:01:52.064Z,12.20
2023-05-16T08:04:23.158Z,12.20
2023-05-16T08:06:53.631Z,12.20
2023-05-16T08:09:21.658Z,12.20
2023-05-16T08:11:50.090Z,12.30
2023-05-16T08:14:19.630Z,12.40
2023-05-16T08:16:50.400Z,12.40
2023-05-16T08:19:18.570Z,12.50
2023-05-16T08:21:47.272Z,12.60
2023-05-16T08:24:17.018Z,12.60
2023-05-16T08:26:46.191Z,12.70
2023-05-16T08:29:15.748Z,12.70
2023-05-16T08:31:45.310Z,12.70
2023-05-16T08:34:13.983Z,12.70
2023-05-16T08:36:42.093Z,12.60
2023-05-16T08:39:14.692Z,12.60
2023-05-16T08:41:42.906Z,12.60
2023-05-16T08:44:13.168Z,12.60
2023-05-16T08:46:48.380Z,12.70
2023-05-16T08:49:17.604Z,12.80
2023-05-16T08:51:50.877Z,12.70
2023-05-16T08:54:19.694Z,12.80
2023-05-16T08:56:50.320Z,13.00
2023-05-16T08:59:19.571Z,13.00
2023-05-16T09:01:49.175Z,13.00
2023-05-16T09:04:19.837Z,12.90
2023-05-16T09:06:49.170Z,13.00
2023-05-16T09:09:17.373Z,13.00
2023-05-16T09:11:45.595Z,13.00
2023-05-16T09:14:14.236Z,13.00
2023-05-16T09:16:42.655Z,13.10
2023-05-16T09:19:16.482Z,13.20
2023-05-16T09:21:45.384Z,13.20
2023-05-16T09:24:13.337Z,13.20
2023-05-16T09:26:43.712Z,13.20
2023-05-16T09:29:13.093Z,13.20
2023-05-16T09:31:41.596Z,13.10
2023-05-16T09:34:13.083Z,12.90
2023-05-16T09:36:43.755Z,12.80
2023-05-16T09:39:16.562Z,12.70
2023-05-16T09:41:44.520Z,12.90
2023-05-16T09:44:12.625Z,13.20
2023-05-16T09:46:41.591Z,13.30
2023-05-16T09:49:13.546Z,13.30
2023-05-16T09:51:42.439Z,13.30
2023-05-16T09:54:10.991Z,13.30
2023-05-16T09:56:50.705Z,13.40
2023-05-16T09:59:19.009Z,13.40
2023-05-16T10:01:48.464Z,13.40
2023-05-16T10:04:17.913Z,13.50
2023-05-16T10:06:49.158Z,13.50
2023-05-16T10:09:19.141Z,13.50
2023-05-16T10:11:49.477Z,13.40
2023-05-16T10:14:19.912Z,13.40
2023-05-16T10:16:50.260Z,13.40
2023-05-16T10:19:22.880Z,13.50
2023-05-16T10:21:55.232Z,13.50
2023-05-16T10:24:30.420Z,13.50
2023-05-16T10:26:58.747Z,13.50
2023-05-16T10:29:27.548Z,13.60
2023-05-16T10:31:56.563Z,13.60
2023-05-16T10:34:26.553Z,13.60
2023-05-16T10:36:55.123Z,13.60
2023-05-16T10:39:24.233Z,13.50
2023-05-16T10:41:52.563Z,13.50
2023-05-16T10:44:20.767Z,13.50
2023-05-16T10:46:49.119Z,13.40
2023-05-16T10:49:28.540Z,13.40
2023-05-16T10:52:08.844Z,13.30
2023-05-16T10:54:38.056Z,13.20
2023-05-16T10:57:08.074Z,13.20
2023-05-16T10:59:44.424Z,13.20
2023-05-16T11:02:27.017Z,13.20
2023-05-16T11:05:00.682Z,13.30
2023-05-16T11:07:37.338Z,13.30
2023-05-16T11:10:08.704Z,13.30
2023-05-16T11:12:45.573Z,13.20
2023-05-16T11:15:25.853Z,13.20
2023-05-16T11:18:06.345Z,13.10
2023-05-16T11:20:36.782Z,13.10
2023-05-16T11:23:24.470Z,13.00
2023-05-16T11:25:55.107Z,13.00
2023-05-16T11:28:24.880Z,12.90
2023-05-16T11:30:56.089Z,12.90
2023-05-16T11:33:25.207Z,12.80
2023-05-16T11:36:15.344Z,12.80
2023-05-16T11:38:44.513Z,12.80
2023-05-16T11:41:15.480Z,12.70
2023-05-16T11:43:45.325Z,12.60
2023-05-16T11:46:14.158Z,12.40
2023-05-16T11:48:43.228Z,12.10
2023-05-16T11:51:14.702Z,12.00
2023-05-16T11:53:43.134Z,11.90
2023-05-16T11:56:11.289Z,12.00
2023-05-16T11:58:39.769Z,12.20
2023-05-16T12:01:08.196Z,12.30
2023-05-16T12:03:37.138Z,12.40
2023-05-16T12:06:06.132Z,12.40
2023-05-16T12:08:35.898Z,12.50
2023-05-16T12:11:03.896Z,12.50
2023-05-16T12:13:32.226Z,12.50
2023-05-16T12:16:00.559Z,12.60
2023-05-16T12:18:28.782Z,12.90
2023-05-16T12:20:56.858Z,13.20
2023-05-16T12:23:27.816Z,13.50
2023-05-16T12:25:58.086Z,13.70
2023-05-16T12:28:26.261Z,13.80
2023-05-16T12:30:54.238Z,13.70
2023-05-16T12:33:22.824Z,13.60
2023-05-16T12:35:51.691Z,13.50
2023-05-16T12:38:21.611Z,13.40
2023-05-16T12:40:49.643Z,13.30
2023-05-16T12:43:21.672Z,13.20
2023-05-16T12:45:54.671Z,13.10
2023-05-16T12:48:23.246Z,13.10
2023-05-16T12:50:51.580Z,13.10
2023-05-16T12:53:20.615Z,13.20
2023-05-16T12:55:48.777Z,13.20
2023-05-16T12:58:18.442Z,13.30
2023-05-16T13:00:46.450Z,13.30
2023-05-16T13:03:14.609Z,13.30
2023-05-16T13:05:42.967Z,13.40
2023-05-16T13:08:11.029Z,13.60
2023-05-16T13:10:39.072Z,13.70
2023-05-16T13:13:07.052Z,13.90
2023-05-16T13:15:36.585Z,14.00
2023-05-16T13:18:04.875Z,14.10
2023-05-16T13:20:32.966Z,14.10
2023-05-16T13:23:01.517Z,14.10
2023-05-16T13:25:30.353Z,14.00
2023-05-16T13:27:58.776Z,14.00
2023-05-16T13:30:27.215Z,14.00
2023-05-16T13:32:56.743Z,14.10
2023-05-16T13:35:25.107Z,14.20
2023-05-16T13:37:53.155Z,14.20
2023-05-16T13:40:21.492Z,14.30
2023-05-16T13:42:49.611Z,14.40
2023-05-16T13:45:17.841Z,14.40
2023-05-16T13:47:48.116Z,14.40
2023-05-16T13:50:18.969Z,14.40
2023-05-16T13:52:47.520Z,14.50
2023-05-16T13:55:15.909Z,14.50
2023-05-16T13:57:44.032Z,14.40
2023-05-16T14:02:44.685Z,14.50
2023-05-16T14:05:13.060Z,14.50
2023-05-16T14:07:44.230Z,14.50
2023-05-16T14:10:13.531Z,14.60
2023-05-16T14:12:42.213Z,14.70
2023-05-16T14:15:10.974Z,14.70
2023-05-16T14:17:39.229Z,14.70
2023-05-16T14:20:10.723Z,14.60
2023-05-16T14:22:38.851Z,14.50
2023-05-16T14:25:09.185Z,14.50
2023-05-16T14:27:37.222Z,14.40
2023-05-16T14:30:08.127Z,14.40
2023-05-16T14:32:37.453Z,14.30
2023-05-16T14:35:06.455Z,14.30
2023-05-16T14:37:34.617Z,14.30
2023-05-16T14:40:02.650Z,14.30
2023-05-16T14:42:32.240Z,14.40
2023-05-16T14:45:00.209Z,14.40
2023-05-16T14:47:31.187Z,14.50
2023-05-16T14:49:59.707Z,14.50
2023-05-16T14:52:27.834Z,14.50
2023-05-16T14:54:55.857Z,14.60
2023-05-16T14:57:27.946Z,14.70
2023-05-16T14:59:58.603Z,14.60
2023-05-16T15:02:27.736Z,14.60
2023-05-16T15:04:55.987Z,14.60
2023-05-16T15:07:24.270Z,14.50
2023-05-16T15:09:52.533Z,14.40
2023-05-16T15:12:20.573Z,14.30
2023-05-16T15:14:48.770Z,14.20
2023-05-16T15:17:18.140Z,14.10
2023-05-16T15:19:47.844Z,14.00
2023-05-16T15:22:15.968Z,13.80
2023-05-16T15:24:44.360Z,13.70
2023-05-16T15:27:12.523Z,13.70
2023-05-16T15:29:40.549Z,13.60
2023-05-16T15:32:09.137Z,13.50
2023-05-16T15:34:40.207Z,13.50
2023-05-16T15:37:08.186Z,13.40
2023-05-16T15:39:37.749Z,13.40
2023-05-16T15:44:37.393Z,13.30
2023-05-16T15:47:06.239Z,13.30
2023-05-16T15:49:34.511Z,13.20
2023-05-16T15:52:03.967Z,13.20
2023-05-16T15:54:31.996Z,13.20
2023-05-16T15:57:00.114Z,13.20
2023-05-16T15:59:28.219Z,13.20
2023-05-16T16:01:56.490Z,13.30
2023-05-16T16:04:24.652Z,13.30
2023-05-16T16:06:52.945Z,13.40
2023-05-16T16:09:22.307Z,13.40
2023-05-16T16:11:52.310Z,13.40
2023-05-16T16:14:20.402Z,13.40
2023-05-16T16:16:48.418Z,13.40
2023-05-16T16:19:16.465Z,13.20
2023-05-16T16:21:44.595Z,13.20
2023-05-16T16:24:12.963Z,13.20
2023-05-16T16:26:43.561Z,13.10
2023-05-16T16:29:11.631Z,13.10
2023-05-16T16:31:41.459Z,13.00
2023-05-16T16:34:09.511Z,12.90
2023-05-16T16:36:38.202Z,12.80
2023-05-16T16:39:06.531Z,12.80
2023-05-16T16:41:34.595Z,12.80
2023-05-16T16:44:04.894Z,12.70
2023-05-16T16:46:33.051Z,12.70
2023-05-16T16:49:01.407Z,12.70
2023-05-16T16:51:31.152Z,12.70
2023-05-16T16:53:59.719Z,12.80
2023-05-16T16:56:30.093Z,12.80
2023-05-16T16:58:59.364Z,12.80
2023-05-16T17:01:31.942Z,12.80
2023-05-16T17:04:00.183Z,12.90
2023-05-16T17:06:30.035Z,12.90
2023-05-16T17:09:02.461Z,12.90
2023-05-16T17:11:30.975Z,13.00
2023-05-16T17:13:59.861Z,13.00
2023-05-16T17:16:29.680Z,13.00
2023-05-16T17:18:58.649Z,13.00
2023-05-16T17:21:28.150Z,13.00
2023-05-16T17:23:58.132Z,13.00
2023-05-16T17:26:27.401Z,13.00
2023-05-16T17:28:56.417Z,13.00
2023-05-16T17:31:26.764Z,12.90
2023-05-16T17:33:56.338Z,12.90
2023-05-16T17:36:24.361Z,12.90
2023-05-16T17:38:56.228Z,12.90
2023-05-16T17:41:27.538Z,12.90
2023-05-16T17:43:56.962Z,12.80
2023-05-16T17:46:25.207Z,12.80
2023-05-16T17:48:53.439Z,12.80
2023-05-16T17:51:22.939Z,12.80
2023-05-16T17:53:51.444Z,12.80
2023-05-16T17:56:22.547Z,12.80
2023-05-16T17:58:50.590Z,12.90
2023-05-16T18:01:19.521Z,12.90
2023-05-16T18:03:49.543Z,12.90
2023-05-16T18:06:18.230Z,12.90
2023-05-16T18:08:49.699Z,12.90
2023-05-16T18:11:18.391Z,12.90
2023-05-16T18:13:46.490Z,12.90
2023-05-16T18:16:14.628Z,12.90
2023-05-16T18:18:44.130Z,13.00
2023-05-16T18:21:13.376Z,13.00
2023-05-16T18:23:45.416Z,12.90
2023-05-16T18:26:20.977Z,12.80
2023-05-16T18:28:49.032Z,12.80
2023-05-16T18:31:18.001Z,12.80
2023-05-16T18:33:46.531Z,12.70
2023-05-16T18:36:17.897Z,12.70
2023-05-16T18:38:47.259Z,12.70
2023-05-16T18:41:16.821Z,12.70
2023-05-16T18:43:45.312Z,12.60
2023-05-16T18:46:16.898Z,12.70
2023-05-16T18:48:45.020Z,12.60
2023-05-16T18:51:13.176Z,12.60
2023-05-16T18:53:41.185Z,12.60
2023-05-16T18:56:12.392Z,12.60
2023-05-16T18:58:43.011Z,12.60
2023-05-16T19:01:11.460Z,12.50
2023-05-16T19:03:41.717Z,12.50
2023-05-16T19:06:14.383Z,12.50
2023-05-16T19:08:48.173Z,12.50
2023-05-16T19:11:17.499Z,12.40
2023-05-16T19:13:47.577Z,12.40
2023-05-16T19:16:15.768Z,12.40
2023-05-16T19:18:44.414Z,12.40
2023-05-16T19:21:17.256Z,12.40
2023-05-16T19:23:46.211Z,12.30
2023-05-16T19:26:14.317Z,12.30
2023-05-16T19:28:42.663Z,12.30
2023-05-16T19:31:12.729Z,12.30
2023-05-16T19:33:40.733Z,12.30
2023-05-16T19:36:09.892Z,12.30
2023-05-16T19:38:37.908Z,12.30
2023-05-16T19:41:06.271Z,12.30
2023-05-16T19:43:38.195Z,12.30
2023-05-16T19:46:06.902Z,12.30
2023-05-16T19:48:36.377Z,12.30
2023-05-16T19:51:04.557Z,12.30
2023-05-16T19:53:32.585Z,12.30
2023-05-16T19:56:01.518Z,12.20
2023-05-16T19:58:29.699Z,12.20
2023-05-16T20:01:00.261Z,12.20
2023-05-16T20:03:28.588Z,12.10
2023-05-16T20:05:59.140Z,12.00
2023-05-16T20:08:27.129Z,12.00
2023-05-16T20:10:55.841Z,12.00
2023-05-16T20:13:25.543Z,11.90
2023-05-16T20:15:56.207Z,11.90
2023-05-16T20:18:26.898Z,11.90
2023-05-16T20:20:56.835Z,11.90
2023-05-16T20:23:28.424Z,11.80
2023-05-16T20:25:57.070Z,11.80
2023-05-16T20:28:25.197Z,11.80
2023-05-16T20:30:53.252Z,11.80
2023-05-16T20:33:21.377Z,11.80
2023-05-16T20:35:52.937Z,11.70
2023-05-16T20:38:20.928Z,11.70
2023-05-16T20:40:50.250Z,11.70
2023-05-16T20:43:19.655Z,11.70
2023-05-16T20:45:47.693Z,11.70
2023-05-16T20:48:15.998Z,11.60
2023-05-16T20:50:44.039Z,11.60
2023-05-16T20:53:12.070Z,11.60
2023-05-16T20:55:40.148Z,11.60
2023-05-16T20:58:09.499Z,11.60
2023-05-16T21:00:37.461Z,11.60
2023-05-16T21:03:05.787Z,11.50
2023-05-16T21:05:35.804Z,11.50
2023-05-16T21:08:03.996Z,11.50
2023-05-16T21:10:32.019Z,11.50
2023-05-16T21:12:59.996Z,11.50
2023-05-16T21:15:29.763Z,11.40
2023-05-16T21:17:58.180Z,11.40
2023-05-16T21:20:28.416Z,11.40
2023-05-16T21:22:56.388Z,11.40
2023-05-16T21:25:24.446Z,11.30
2023-05-16T21:27:52.523Z,11.30
2023-05-16T21:30:20.699Z,11.30
2023-05-16T21:32:50.118Z,11.30
2023-05-16T21:35:18.148Z,11.30
2023-05-16T21:37:46.196Z,11.30
2023-05-16T21:40:18.982Z,11.30
2023-05-16T21:42:47.003Z,11.30
2023-05-16T21:45:16.604Z,11.20
2023-05-16T21:47:44.652Z,11.20
2023-05-16T21:50:14.507Z,11.20
2023-05-16T21:52:42.677Z,11.20
2023-05-16T21:55:11.160Z,11.20
2023-05-16T21:57:39.153Z,11.20
2023-05-16T22:00:09.769Z,11.20
2023-05-16T22:02:38.645Z,11.20
2023-05-16T22:05:07.600Z,11.10
2023-05-16T22:07:37.209Z,11.10
2023-05-16T22:10:05.977Z,11.10
2023-05-16T22:12:34.262Z,11.10
2023-05-16T22:15:02.263Z,11.10
2023-05-16T22:17:30.494Z,11.10
2023-05-16T22:19:58.638Z,11.10
2023-05-16T22:22:26.631Z,11.10
2023-05-16T22:24:56.009Z,11.10
2023-05-16T22:27:24.004Z,11.10
2023-05-16T22:29:52.327Z,11.10
2023-05-16T22:32:20.350Z,11.10
2023-05-16T22:34:48.360Z,11.10
2023-05-16T22:37:16.348Z,11.10
2023-05-16T22:39:44.240Z,11.10
2023-05-16T22:42:13.545Z,11.10
2023-05-16T22:44:41.511Z,11.10
2023-05-16T22:47:09.500Z,11.10
2023-05-16T22:49:37.534Z,11.10
2023-05-16T22:52:06.140Z,11.10
2023-05-16T22:54:34.111Z,11.10
2023-05-16T22:57:02.217Z,11.10
2023-05-16T22:59:32.003Z,11.10
2023-05-16T23:02:00.323Z,11.10
2023-05-16T23:04:28.392Z,11.10
2023-05-16T23:06:56.387Z,11.10
2023-05-16T23:09:24.418Z,11.10
2023-05-16T23:12:02.884Z,11.10
2023-05-16T23:14:37.726Z,11.10
2023-05-16T23:17:08.741Z,11.10
2023-05-16T23:19:37.422Z,11.10
2023-05-16T23:22:06.480Z,11.10
2023-05-16T23:24:34.713Z,11.10
2023-05-16T23:27:03.127Z,11.10
2023-05-16T23:29:32.553Z,11.10
2023-05-16T23:32:00.777Z,11.10
2023-05-16T23:34:29.050Z,11.10
2023-05-16T23:36:57.344Z,11.10
2023-05-16T23:39:25.443Z,11.10
2023-05-16T23:41:53.451Z,11.10
2023-05-16T23:44:22.269Z,11.20
2023-05-16T23:46:54.290Z,11.20
2023-05-16T23:49:22.592Z,11.20
2023-05-16T23:51:56.885Z,11.20
2023-05-16T23:54:27.029Z,11.20
2023-05-16T23:56:56.227Z,11.20
2023-05-16T23:59:24.732Z,11.20
